createdAt,value
2023-08-12T00:09:34.059Z,19.90
2023-08-12T00:19:39.422Z,22.33
2023-08-12T00:29:42.095Z,21.48
2023-08-12T00:39:44.667Z,27.17
2023-08-12T00:49:47.373Z,25.83
2023-08-12T00:59:50.518Z,21.95
2023-08-12T01:09:53.234Z,19.20
2023-08-12T01:20:34.180Z,18.38
2023-08-12T01:30:42.937Z,19.73
2023-08-12T01:40:46.263Z,24.52
2023-08-12T01:50:49.294Z,25.80
2023-08-12T02:00:51.787Z,30.25
2023-08-12T02:10:55.569Z,25.98
2023-08-12T02:20:58.580Z,19.55
2023-08-12T02:31:01.046Z,16.00
2023-08-12T02:41:04.942Z,18.42
2023-08-12T02:51:07.421Z,18.65
2023-08-12T03:01:10.115Z,17.83
2023-08-12T03:11:12.692Z,18.80
2023-08-12T03:21:15.437Z,17.95
2023-08-12T03:31:18.965Z,17.15
2023-08-12T03:41:22.099Z,19.80
2023-08-12T03:51:25.513Z,18.85
2023-08-12T04:01:28.441Z,19.05
2023-08-12T04:11:32.311Z,19.98
2023-08-12T04:21:35.095Z,15.55
2023-08-12T04:31:37.617Z,17.83
2023-08-12T04:41:40.509Z,16.73
2023-08-12T04:51:43.747Z,17.85
2023-08-12T05:02:02.462Z,17.58
2023-08-12T05:12:08.457Z,13.95
2023-08-12T05:22:12.162Z,16.20
2023-08-12T05:32:15.204Z,16.45
2023-08-12T05:42:17.816Z,13.25
2023-08-12T05:52:20.410Z,13.65
2023-08-12T06:02:23.094Z,12.05
2023-08-12T06:12:25.591Z,10.70
2023-08-12T06:22:28.216Z,8.43
2023-08-12T06:32:30.685Z,7.28
2023-08-12T06:42:33.284Z,5.90
2023-08-12T06:52:35.903Z,6.35
2023-08-12T07:02:38.528Z,6.47
2023-08-12T07:12:41.038Z,4.90
2023-08-12T07:22:43.668Z,9.50
2023-08-12T07:32:46.164Z,4.43
2023-08-12T07:42:48.728Z,4.20
2023-08-12T07:52:53.016Z,7.72
2023-08-12T08:02:55.580Z,7.00
2023-08-12T08:12:58.269Z,3.00
2023-08-12T08:23:01.036Z,2.85
2023-08-12T08:33:03.822Z,2.35
2023-08-12T08:43:08.682Z,2.38
2023-08-12T08:53:11.239Z,3.67
2023-08-12T09:03:14.649Z,1.90
2023-08-12T09:13:20.047Z,2.95
2023-08-12T09:23:23.285Z,2.67
2023-08-12T09:33:29.519Z,1.77
2023-08-12T09:43:33.192Z,3.42
2023-08-12T09:53:36.222Z,1.88
2023-08-12T10:03:39.042Z,2.83
2023-08-12T10:13:42.053Z,1.50
2023-08-12T10:23:47.695Z,1.27
2023-08-12T10:33:51.120Z,2.05
2023-08-12T10:43:57.221Z,1.90
2023-08-12T10:54:17.711Z,1.02
2023-08-12T11:04:20.374Z,1.05
2023-08-12T11:14:25.011Z,0.40
2023-08-12T11:24:27.905Z,2.47
2023-08-12T11:34:31.305Z,1.98
2023-08-12T11:44:33.927Z,0.68
2023-08-12T11:54:36.581Z,2.53
2023-08-12T12:04:43.372Z,1.88
2023-08-12T12:14:53.849Z,2.88
2023-08-12T12:24:59.899Z,1.35
2023-08-12T12:35:02.427Z,0.70
2023-08-12T12:45:07.192Z,0.82
2023-08-12T12:55:09.695Z,0.60
2023-08-12T13:05:12.177Z,1.30
2023-08-12T13:15:14.815Z,1.02
2023-08-12T13:25:17.549Z,2.10
2023-08-12T13:35:20.331Z,1.20
2023-08-12T13:45:23.031Z,4.78
2023-08-12T13:55:26.909Z,3.03
2023-08-12T14:05:29.644Z,3.08
2023-08-12T14:15:34.258Z,3.38
2023-08-12T14:25:36.957Z,4.50
2023-08-12T14:35:39.524Z,5.97
2023-08-12T14:45:42.074Z,7.65
2023-08-12T14:55:45.639Z,8.00
2023-08-12T15:05:49.467Z,6.93
2023-08-12T15:15:52.744Z,5.78
2023-08-12T15:25:55.315Z,5.30
2023-08-12T15:35:57.937Z,6.00
2023-08-12T15:46:01.674Z,5.10
2023-08-12T15:56:04.972Z,6.80
2023-08-12T16:06:08.474Z,12.00
2023-08-12T16:16:11.426Z,6.68
2023-08-12T16:26:13.961Z,11.15
2023-08-12T16:36:16.669Z,2.92
2023-08-12T16:46:19.126Z,3.83
2023-08-12T16:56:21.790Z,2.70
2023-08-12T17:06:24.336Z,2.67
2023-08-12T17:16:27.916Z,2.80
2023-08-12T17:26:32.575Z,4.15
2023-08-12T17:36:35.150Z,4.25
2023-08-12T17:46:38.046Z,7.97
2023-08-12T17:56:41.221Z,3.55
2023-08-12T18:06:44.436Z,6.00
2023-08-12T18:16:47.226Z,6.15
2023-08-12T18:26:50.094Z,5.00
2023-08-12T18:36:52.842Z,3.55
2023-08-12T19:00:07.920Z,4.53
2023-08-12T19:10:16.766Z,5.15
2023-08-12T19:21:14.373Z,4.18
2023-08-12T19:31:27.105Z,4.90
2023-08-12T19:41:30.625Z,6.50
2023-08-12T19:51:33.510Z,8.80
2023-08-12T20:01:36.395Z,5.90
2023-08-12T20:11:39.069Z,4.63
2023-08-12T20:21:41.845Z,4.63
2023-08-12T20:31:44.456Z,6.72
2023-08-12T20:41:55.335Z,6.82
2023-08-12T20:52:06.249Z,4.88
2023-08-12T21:02:08.878Z,3.72
2023-08-12T21:12:12.592Z,8.95
2023-08-12T21:22:15.760Z,3.45
2023-08-12T21:32:20.554Z,3.72
2023-08-12T21:42:26.286Z,5.05
2023-08-12T21:52:29.012Z,3.17
2023-08-12T22:02:31.700Z,4.22
2023-08-12T22:12:34.520Z,2.72
2023-08-12T22:22:37.169Z,6.32
2023-08-12T22:32:39.816Z,7.55
2023-08-12T22:42:42.503Z,4.13
2023-08-12T22:52:45.238Z,6.40
2023-08-12T23:02:48.006Z,3.13
2023-08-12T23:12:51.061Z,7.20
2023-08-12T23:22:53.704Z,6.35
2023-08-12T23:32:56.368Z,6.38
2023-08-12T23:43:01.023Z,5.18
2023-08-12T23:53:04.729Z,5.63
